sensor_id;sensor_type;location;lat;lon;timestamp;P1;durP1;ratioP1;P2;durP2;ratioP2
68140;SDS011;54941;52.220;104.306;2023-04-12T00:02:01;4.80;;;1.20;;
68140;SDS011;54941;52.220;104.306;2023-04-12T00:04:27;3.03;;;1.10;;
68140;SDS011;54941;52.220;104.306;2023-04-12T00:06:55;3.75;;;1.40;;
68140;SDS011;54941;52.220;104.306;2023-04-12T00:09:22;3.22;;;0.95;;
68140;SDS011;54941;52.220;104.306;2023-04-12T00:11:48;3.80;;;1.20;;
68140;SDS011;54941;52.220;104.306;2023-04-12T00:14:14;3.92;;;1.20;;
68140;SDS011;54941;52.220;104.306;2023-04-12T00:16:41;4.57;;;0.82;;
68140;SDS011;54941;52.220;104.306;2023-04-12T00:19:07;2.35;;;1.05;;
68140;SDS011;54941;52.220;104.306;2023-04-12T00:21:34;4.63;;;1.30;;
68140;SDS011;54941;52.220;104.306;2023-04-12T00:24:02;3.33;;;1.02;;
68140;SDS011;54941;52.220;104.306;2023-04-12T00:26:28;3.15;;;1.05;;
68140;SDS011;54941;52.220;104.306;2023-04-12T00:28:55;3.10;;;1.17;;
68140;SDS011;54941;52.220;104.306;2023-04-12T00:31:21;11.85;;;2.05;;
68140;SDS011;54941;52.220;104.306;2023-04-12T00:33:47;4.35;;;1.60;;
68140;SDS011;54941;52.220;104.306;2023-04-12T00:36:14;8.52;;;1.90;;
68140;SDS011;54941;52.220;104.306;2023-04-12T00:38:40;6.43;;;2.35;;
68140;SDS011;54941;52.220;104.306;2023-04-12T00:41:08;8.00;;;2.33;;
68140;SDS011;54941;52.220;104.306;2023-04-12T00:43:35;13.32;;;2.65;;
68140;SDS011;54941;52.220;104.306;2023-04-12T00:46:01;6.93;;;2.50;;
68140;SDS011;54941;52.220;104.306;2023-04-12T00:48:28;7.95;;;2.42;;
68140;SDS011;54941;52.220;104.306;2023-04-12T00:50:55;8.57;;;2.80;;
68140;SDS011;54941;52.220;104.306;2023-04-12T00:53:21;15.63;;;4.80;;
68140;SDS011;54941;52.220;104.306;2023-04-12T00:55:49;7.68;;;2.78;;
68140;SDS011;54941;52.220;104.306;2023-04-12T00:58:17;9.20;;;3.15;;
68140;SDS011;54941;52.220;104.306;2023-04-12T01:00:43;9.13;;;3.22;;
68140;SDS011;54941;52.220;104.306;2023-04-12T01:03:10;9.25;;;3.83;;
68140;SDS011;54941;52.220;104.306;2023-04-12T01:05:39;5.93;;;2.75;;
68140;SDS011;54941;52.220;104.306;2023-04-12T01:08:13;9.45;;;2.90;;
68140;SDS011;54941;52.220;104.306;2023-04-12T01:10:45;5.72;;;2.50;;
68140;SDS011;54941;52.220;104.306;2023-04-12T01:13:24;9.27;;;3.35;;
68140;SDS011;54941;52.220;104.306;2023-04-12T01:15:57;10.77;;;3.05;;
68140;SDS011;54941;52.220;104.306;2023-04-12T01:18:29;9.95;;;2.83;;
68140;SDS011;54941;52.220;104.306;2023-04-12T01:21:00;8.75;;;2.70;;
68140;SDS011;54941;52.220;104.306;2023-04-12T01:23:42;7.85;;;2.70;;
68140;SDS011;54941;52.220;104.306;2023-04-12T01:26:20;9.13;;;3.92;;
68140;SDS011;54941;52.220;104.306;2023-04-12T01:28:57;7.97;;;3.13;;
68140;SDS011;54941;52.220;104.306;2023-04-12T01:31:27;22.25;;;3.60;;
68140;SDS011;54941;52.220;104.306;2023-04-12T01:33:55;8.48;;;3.20;;
68140;SDS011;54941;52.220;104.306;2023-04-12T01:36:24;13.13;;;3.75;;
68140;SDS011;54941;52.220;104.306;2023-04-12T01:38:52;12.88;;;4.32;;
68140;SDS011;54941;52.220;104.306;2023-04-12T01:41:19;12.38;;;5.03;;
68140;SDS011;54941;52.220;104.306;2023-04-12T01:43:46;13.23;;;4.43;;
68140;SDS011;54941;52.220;104.306;2023-04-12T01:46:15;12.75;;;3.72;;
68140;SDS011;54941;52.220;104.306;2023-04-12T01:48:48;12.93;;;5.13;;
68140;SDS011;54941;52.220;104.306;2023-04-12T01:51:17;19.02;;;5.15;;
68140;SDS011;54941;52.220;104.306;2023-04-12T01:53:53;11.13;;;4.82;;
68140;SDS011;54941;52.220;104.306;2023-04-12T01:56:23;14.77;;;5.68;;
68140;SDS011;54941;52.220;104.306;2023-04-12T01:58:54;11.13;;;5.03;;
68140;SDS011;54941;52.220;104.306;2023-04-12T02:01:24;13.35;;;6.00;;
68140;SDS011;54941;52.220;104.306;2023-04-12T02:03:50;17.33;;;6.10;;
68140;SDS011;54941;52.220;104.306;2023-04-12T02:06:18;16.55;;;6.78;;
68140;SDS011;54941;52.220;104.306;2023-04-12T02:08:53;18.27;;;6.60;;
68140;SDS011;54941;52.220;104.306;2023-04-12T02:11:22;15.45;;;6.03;;
68140;SDS011;54941;52.220;104.306;2023-04-12T02:13:49;14.93;;;5.07;;
68140;SDS011;54941;52.220;104.306;2023-04-12T02:16:37;11.65;;;4.63;;
68140;SDS011;54941;52.220;104.306;2023-04-12T02:19:03;11.65;;;4.57;;
68140;SDS011;54941;52.220;104.306;2023-04-12T02:21:38;11.07;;;4.60;;
68140;SDS011;54941;52.220;104.306;2023-04-12T02:26:30;12.07;;;5.32;;
68140;SDS011;54941;52.220;104.306;2023-04-12T02:28:57;11.95;;;5.18;;
68140;SDS011;54941;52.220;104.306;2023-04-12T02:31:23;12.27;;;5.47;;
68140;SDS011;54941;52.220;104.306;2023-04-12T02:33:51;18.55;;;6.35;;
68140;SDS011;54941;52.220;104.306;2023-04-12T02:36:18;17.50;;;6.35;;
68140;SDS011;54941;52.220;104.306;2023-04-12T02:38:44;18.73;;;6.07;;
68140;SDS011;54941;52.220;104.306;2023-04-12T02:41:15;18.02;;;5.80;;
68140;SDS011;54941;52.220;104.306;2023-04-12T02:43:42;16.75;;;5.07;;
68140;SDS011;54941;52.220;104.306;2023-04-12T02:46:09;16.85;;;5.78;;
68140;SDS011;54941;52.220;104.306;2023-04-12T02:48:35;10.95;;;4.28;;
68140;SDS011;54941;52.220;104.306;2023-04-12T02:51:03;13.05;;;4.78;;
68140;SDS011;54941;52.220;104.306;2023-04-12T02:53:30;14.50;;;4.45;;
68140;SDS011;54941;52.220;104.306;2023-04-12T02:55:56;12.48;;;4.45;;
68140;SDS011;54941;52.220;104.306;2023-04-12T02:58:22;10.23;;;4.13;;
68140;SDS011;54941;52.220;104.306;2023-04-12T03:00:49;16.23;;;4.10;;
68140;SDS011;54941;52.220;104.306;2023-04-12T03:03:15;13.88;;;4.43;;
68140;SDS011;54941;52.220;104.306;2023-04-12T03:05:41;14.32;;;3.78;;
68140;SDS011;54941;52.220;104.306;2023-04-12T03:08:09;12.77;;;4.70;;
68140;SDS011;54941;52.220;104.306;2023-04-12T03:10:36;13.30;;;3.70;;
68140;SDS011;54941;52.220;104.306;2023-04-12T03:13:02;16.35;;;5.18;;
68140;SDS011;54941;52.220;104.306;2023-04-12T03:15:29;17.38;;;4.47;;
68140;SDS011;54941;52.220;104.306;2023-04-12T03:17:55;14.27;;;4.18;;
68140;SDS011;54941;52.220;104.306;2023-04-12T03:20:21;9.10;;;3.05;;
68140;SDS011;54941;52.220;104.306;2023-04-12T03:22:48;8.10;;;3.15;;
68140;SDS011;54941;52.220;104.306;2023-04-12T03:25:16;11.05;;;3.53;;
68140;SDS011;54941;52.220;104.306;2023-04-12T03:27:42;8.13;;;2.65;;
68140;SDS011;54941;52.220;104.306;2023-04-12T03:30:09;7.15;;;2.20;;
68140;SDS011;54941;52.220;104.306;2023-04-12T03:32:36;7.68;;;2.25;;
68140;SDS011;54941;52.220;104.306;2023-04-12T03:35:04;7.32;;;2.28;;
68140;SDS011;54941;52.220;104.306;2023-04-12T03:37:31;10.98;;;2.30;;
68140;SDS011;54941;52.220;104.306;2023-04-12T03:39:57;15.13;;;3.30;;
68140;SDS011;54941;52.220;104.306;2023-04-12T03:42:26;9.57;;;2.90;;
68140;SDS011;54941;52.220;104.306;2023-04-12T03:44:52;11.77;;;3.17;;
68140;SDS011;54941;52.220;104.306;2023-04-12T03:47:19;7.38;;;2.53;;
68140;SDS011;54941;52.220;104.306;2023-04-12T03:49:45;6.47;;;2.22;;
68140;SDS011;54941;52.220;104.306;2023-04-12T03:52:12;8.65;;;1.60;;
68140;SDS011;54941;52.220;104.306;2023-04-12T03:54:39;3.28;;;1.85;;
68140;SDS011;54941;52.220;104.306;2023-04-12T03:57:05;7.80;;;2.20;;
68140;SDS011;54941;52.220;104.306;2023-04-12T03:59:33;6.68;;;2.05;;
68140;SDS011;54941;52.220;104.306;2023-04-12T04:02:00;7.57;;;2.40;;
68140;SDS011;54941;52.220;104.306;2023-04-12T04:04:26;8.77;;;2.60;;
68140;SDS011;54941;52.220;104.306;2023-04-12T04:06:52;12.63;;;3.70;;
68140;SDS011;54941;52.220;104.306;2023-04-12T04:09:19;11.02;;;2.95;;
68140;SDS011;54941;52.220;104.306;2023-04-12T04:11:46;9.15;;;2.63;;
68140;SDS011;54941;52.220;104.306;2023-04-12T04:14:12;10.18;;;3.00;;
68140;SDS011;54941;52.220;104.306;2023-04-12T04:16:40;10.60;;;3.10;;
68140;SDS011;54941;52.220;104.306;2023-04-12T04:19:06;10.57;;;3.25;;
68140;SDS011;54941;52.220;104.306;2023-04-12T04:21:33;9.45;;;2.92;;
68140;SDS011;54941;52.220;104.306;2023-04-12T04:23:59;13.68;;;3.83;;
68140;SDS011;54941;52.220;104.306;2023-04-12T04:26:26;8.82;;;3.00;;
68140;SDS011;54941;52.220;104.306;2023-04-12T04:28:52;6.93;;;2.47;;
68140;SDS011;54941;52.220;104.306;2023-04-12T04:31:19;12.40;;;3.00;;
68140;SDS011;54941;52.220;104.306;2023-04-12T04:33:46;8.32;;;2.42;;
68140;SDS011;54941;52.220;104.306;2023-04-12T04:36:13;11.00;;;3.15;;
68140;SDS011;54941;52.220;104.306;2023-04-12T04:38:39;12.80;;;3.40;;
68140;SDS011;54941;52.220;104.306;2023-04-12T04:41:06;6.88;;;2.97;;
68140;SDS011;54941;52.220;104.306;2023-04-12T04:43:32;10.38;;;2.90;;
68140;SDS011;54941;52.220;104.306;2023-04-12T04:45:59;10.10;;;2.35;;
68140;SDS011;54941;52.220;104.306;2023-04-12T04:48:25;5.18;;;2.28;;
68140;SDS011;54941;52.220;104.306;2023-04-12T04:50:53;7.82;;;2.33;;
68140;SDS011;54941;52.220;104.306;2023-04-12T04:53:20;5.93;;;2.15;;
68140;SDS011;54941;52.220;104.306;2023-04-12T04:55:46;9.73;;;2.95;;
68140;SDS011;54941;52.220;104.306;2023-04-12T04:58:13;6.63;;;2.33;;
68140;SDS011;54941;52.220;104.306;2023-04-12T05:00:40;8.40;;;2.47;;
68140;SDS011;54941;52.220;104.306;2023-04-12T05:03:06;6.35;;;2.17;;
68140;SDS011;54941;52.220;104.306;2023-04-12T05:05:33;6.20;;;2.05;;
68140;SDS011;54941;52.220;104.306;2023-04-12T05:08:01;5.05;;;2.35;;
68140;SDS011;54941;52.220;104.306;2023-04-12T05:10:27;8.32;;;2.65;;
68140;SDS011;54941;52.220;104.306;2023-04-12T05:12:54;6.75;;;2.55;;
68140;SDS011;54941;52.220;104.306;2023-04-12T05:15:20;8.10;;;2.90;;
68140;SDS011;54941;52.220;104.306;2023-04-12T05:17:46;13.00;;;2.80;;
68140;SDS011;54941;52.220;104.306;2023-04-12T05:20:13;11.75;;;2.72;;
68140;SDS011;54941;52.220;104.306;2023-04-12T05:22:39;8.85;;;2.85;;
68140;SDS011;54941;52.220;104.306;2023-04-12T05:25:07;9.73;;;3.25;;
68140;SDS011;54941;52.220;104.306;2023-04-12T05:27:34;8.07;;;2.90;;
68140;SDS011;54941;52.220;104.306;2023-04-12T05:30:00;10.73;;;3.40;;
68140;SDS011;54941;52.220;104.306;2023-04-12T05:32:27;9.48;;;2.60;;
68140;SDS011;54941;52.220;104.306;2023-04-12T05:34:54;8.63;;;2.20;;
68140;SDS011;54941;52.220;104.306;2023-04-12T05:37:20;11.68;;;3.00;;
68140;SDS011;54941;52.220;104.306;2023-04-12T05:39:46;9.77;;;2.72;;
68140;SDS011;54941;52.220;104.306;2023-04-12T05:42:14;7.35;;;2.22;;
68140;SDS011;54941;52.220;104.306;2023-04-12T05:44:41;7.25;;;2.00;;
68140;SDS011;54941;52.220;104.306;2023-04-12T05:47:08;5.95;;;2.30;;
68140;SDS011;54941;52.220;104.306;2023-04-12T05:49:34;8.05;;;1.80;;
68140;SDS011;54941;52.220;104.306;2023-04-12T05:52:01;7.68;;;2.65;;
68140;SDS011;54941;52.220;104.306;2023-04-12T05:54:28;8.70;;;2.90;;
68140;SDS011;54941;52.220;104.306;2023-04-12T05:56:54;9.25;;;2.70;;
68140;SDS011;54941;52.220;104.306;2023-04-12T05:59:22;8.63;;;1.92;;
68140;SDS011;54941;52.220;104.306;2023-04-12T06:01:48;9.45;;;2.38;;
68140;SDS011;54941;52.220;104.306;2023-04-12T06:04:15;9.07;;;2.40;;
68140;SDS011;54941;52.220;104.306;2023-04-12T06:06:41;8.50;;;2.20;;
68140;SDS011;54941;52.220;104.306;2023-04-12T06:09:08;11.52;;;2.45;;
68140;SDS011;54941;52.220;104.306;2023-04-12T06:11:35;10.15;;;2.38;;
68140;SDS011;54941;52.220;104.306;2023-04-12T06:14:01;8.45;;;2.58;;
68140;SDS011;54941;52.220;104.306;2023-04-12T06:16:29;6.63;;;2.13;;
68140;SDS011;54941;52.220;104.306;2023-04-12T06:18:55;7.80;;;2.10;;
68140;SDS011;54941;52.220;104.306;2023-04-12T06:21:22;10.07;;;2.08;;
68140;SDS011;54941;52.220;104.306;2023-04-12T06:23:49;5.95;;;2.20;;
68140;SDS011;54941;52.220;104.306;2023-04-12T06:26:15;6.43;;;2.33;;
68140;SDS011;54941;52.220;104.306;2023-04-12T06:28:42;11.00;;;2.95;;
68140;SDS011;54941;52.220;104.306;2023-04-12T06:31:08;10.15;;;2.63;;
68140;SDS011;54941;52.220;104.306;2023-04-12T06:33:36;14.27;;;3.30;;
68140;SDS011;54941;52.220;104.306;2023-04-12T06:36:03;11.32;;;3.15;;
68140;SDS011;54941;52.220;104.306;2023-04-12T06:38:30;10.93;;;3.53;;
68140;SDS011;54941;52.220;104.306;2023-04-12T06:40:56;17.10;;;3.17;;
68140;SDS011;54941;52.220;104.306;2023-04-12T06:43:23;11.85;;;3.47;;
68140;SDS011;54941;52.220;104.306;2023-04-12T06:45:49;12.63;;;3.50;;
68140;SDS011;54941;52.220;104.306;2023-04-12T06:48:16;15.85;;;2.67;;
68140;SDS011;54941;52.220;104.306;2023-04-12T06:50:44;9.45;;;2.72;;
68140;SDS011;54941;52.220;104.306;2023-04-12T06:53:10;16.10;;;3.33;;
68140;SDS011;54941;52.220;104.306;2023-04-12T06:55:36;12.18;;;3.55;;
68140;SDS011;54941;52.220;104.306;2023-04-12T06:58:03;9.73;;;2.28;;
68140;SDS011;54941;52.220;104.306;2023-04-12T07:00:29;8.70;;;2.95;;
68140;SDS011;54941;52.220;104.306;2023-04-12T07:02:56;11.98;;;3.15;;
68140;SDS011;54941;52.220;104.306;2023-04-12T07:05:22;11.63;;;3.40;;
68140;SDS011;54941;52.220;104.306;2023-04-12T07:07:50;9.90;;;3.10;;
68140;SDS011;54941;52.220;104.306;2023-04-12T07:10:16;10.13;;;2.85;;
68140;SDS011;54941;52.220;104.306;2023-04-12T07:12:43;5.35;;;1.52;;
68140;SDS011;54941;52.220;104.306;2023-04-12T07:15:09;8.02;;;2.00;;
68140;SDS011;54941;52.220;104.306;2023-04-12T07:17:36;9.45;;;2.03;;
68140;SDS011;54941;52.220;104.306;2023-04-12T07:20:02;6.35;;;2.00;;
68140;SDS011;54941;52.220;104.306;2023-04-12T07:22:29;6.20;;;2.10;;
68140;SDS011;54941;52.220;104.306;2023-04-12T07:24:57;3.50;;;1.73;;
68140;SDS011;54941;52.220;104.306;2023-04-12T07:27:24;5.13;;;1.77;;
68140;SDS011;54941;52.220;104.306;2023-04-12T07:29:50;7.35;;;1.88;;
68140;SDS011;54941;52.220;104.306;2023-04-12T07:32:16;5.30;;;1.42;;
68140;SDS011;54941;52.220;104.306;2023-04-12T07:34:43;5.18;;;1.58;;
68140;SDS011;54941;52.220;104.306;2023-04-12T07:37:09;9.60;;;1.83;;
68140;SDS011;54941;52.220;104.306;2023-04-12T07:39:36;8.15;;;1.60;;
68140;SDS011;54941;52.220;104.306;2023-04-12T07:42:04;3.50;;;1.50;;
68140;SDS011;54941;52.220;104.306;2023-04-12T07:44:30;5.10;;;1.65;;
68140;SDS011;54941;52.220;104.306;2023-04-12T07:46:57;3.88;;;1.30;;
68140;SDS011;54941;52.220;104.306;2023-04-12T07:49:23;7.95;;;2.00;;
68140;SDS011;54941;52.220;104.306;2023-04-12T07:51:50;4.50;;;1.70;;
68140;SDS011;54941;52.220;104.306;2023-04-12T07:54:16;3.63;;;1.65;;
68140;SDS011;54941;52.220;104.306;2023-04-12T07:56:55;6.63;;;2.28;;
68140;SDS011;54941;52.220;104.306;2023-04-12T07:59:24;3.15;;;1.70;;
68140;SDS011;54941;52.220;104.306;2023-04-12T08:01:50;5.85;;;1.98;;
68140;SDS011;54941;52.220;104.306;2023-04-12T08:04:17;4.82;;;1.88;;
68140;SDS011;54941;52.220;104.306;2023-04-12T08:06:43;5.57;;;1.80;;
68140;SDS011;54941;52.220;104.306;2023-04-12T08:09:09;4.72;;;1.60;;
68140;SDS011;54941;52.220;104.306;2023-04-12T08:11:36;7.10;;;1.50;;
68140;SDS011;54941;52.220;104.306;2023-04-12T08:14:02;5.00;;;2.00;;
68140;SDS011;54941;52.220;104.306;2023-04-12T08:16:30;3.83;;;1.90;;
68140;SDS011;54941;52.220;104.306;2023-04-12T08:18:56;4.63;;;2.05;;
68140;SDS011;54941;52.220;104.306;2023-04-12T08:21:23;7.95;;;3.05;;
68140;SDS011;54941;52.220;104.306;2023-04-12T08:23:49;7.22;;;2.90;;
68140;SDS011;54941;52.220;104.306;2023-04-12T08:26:15;6.32;;;2.50;;
68140;SDS011;54941;52.220;104.306;2023-04-12T08:28:42;5.53;;;2.20;;
68140;SDS011;54941;52.220;104.306;2023-04-12T08:31:08;7.00;;;2.80;;
68140;SDS011;54941;52.220;104.306;2023-04-12T08:33:36;5.40;;;2.20;;
68140;SDS011;54941;52.220;104.306;2023-04-12T08:36:03;4.85;;;1.75;;
68140;SDS011;54941;52.220;104.306;2023-04-12T08:38:29;4.40;;;2.15;;
68140;SDS011;54941;52.220;104.306;2023-04-12T08:40:56;5.03;;;2.00;;
68140;SDS011;54941;52.220;104.306;2023-04-12T08:43:22;3.20;;;1.50;;
68140;SDS011;54941;52.220;104.306;2023-04-12T08:45:54;7.15;;;2.70;;
68140;SDS011;54941;52.220;104.306;2023-04-12T08:48:22;9.00;;;2.72;;
68140;SDS011;54941;52.220;104.306;2023-04-12T08:50:51;11.65;;;2.83;;
68140;SDS011;54941;52.220;104.306;2023-04-12T08:53:19;9.35;;;3.40;;
68140;SDS011;54941;52.220;104.306;2023-04-12T08:55:45;5.63;;;2.17;;
68140;SDS011;54941;52.220;104.306;2023-04-12T08:58:12;5.55;;;1.67;;
68140;SDS011;54941;52.220;104.306;2023-04-12T09:00:39;4.43;;;1.98;;
68140;SDS011;54941;52.220;104.306;2023-04-12T09:03:06;4.90;;;1.70;;
68140;SDS011;54941;52.220;104.306;2023-04-12T09:05:33;4.20;;;1.85;;
68140;SDS011;54941;52.220;104.306;2023-04-12T09:08:01;3.35;;;1.75;;
68140;SDS011;54941;52.220;104.306;2023-04-12T09:10:30;3.85;;;2.05;;
68140;SDS011;54941;52.220;104.306;2023-04-12T09:12:58;7.78;;;3.65;;
68140;SDS011;54941;52.220;104.306;2023-04-12T09:15:25;6.10;;;3.42;;
68140;SDS011;54941;52.220;104.306;2023-04-12T09:18:01;9.50;;;4.10;;
68140;SDS011;54941;52.220;104.306;2023-04-12T09:20:31;5.18;;;1.95;;
68140;SDS011;54941;52.220;104.306;2023-04-12T09:22:58;6.60;;;2.80;;
68140;SDS011;54941;52.220;104.306;2023-04-12T09:25:39;5.30;;;2.35;;
68140;SDS011;54941;52.220;104.306;2023-04-12T09:30:52;6.35;;;2.60;;
68140;SDS011;54941;52.220;104.306;2023-04-12T09:33:21;6.35;;;2.70;;
68140;SDS011;54941;52.220;104.306;2023-04-12T09:35:48;5.30;;;2.45;;
68140;SDS011;54941;52.220;104.306;2023-04-12T09:38:15;4.22;;;2.00;;
68140;SDS011;54941;52.220;104.306;2023-04-12T09:40:43;6.05;;;2.70;;
68140;SDS011;54941;52.220;104.306;2023-04-12T09:43:09;5.15;;;2.70;;
68140;SDS011;54941;52.220;104.306;2023-04-12T09:45:36;6.05;;;3.03;;
68140;SDS011;54941;52.220;104.306;2023-04-12T09:48:02;4.05;;;1.90;;
68140;SDS011;54941;52.220;104.306;2023-04-12T09:50:29;5.32;;;2.72;;
68140;SDS011;54941;52.220;104.306;2023-04-12T09:52:56;4.63;;;2.33;;
68140;SDS011;54941;52.220;104.306;2023-04-12T09:55:23;5.63;;;2.63;;
68140;SDS011;54941;52.220;104.306;2023-04-12T09:57:53;5.40;;;2.65;;
68140;SDS011;54941;52.220;104.306;2023-04-12T10:00:21;7.90;;;3.38;;
68140;SDS011;54941;52.220;104.306;2023-04-12T10:02:49;8.23;;;3.58;;
68140;SDS011;54941;52.220;104.306;2023-04-12T10:05:19;7.10;;;3.42;;
68140;SDS011;54941;52.220;104.306;2023-04-12T10:07:46;7.10;;;4.07;;
68140;SDS011;54941;52.220;104.306;2023-04-12T10:10:13;9.10;;;4.07;;
68140;SDS011;54941;52.220;104.306;2023-04-12T10:12:42;8.70;;;4.82;;
68140;SDS011;54941;52.220;104.306;2023-04-12T10:15:11;9.23;;;4.88;;
68140;SDS011;54941;52.220;104.306;2023-04-12T10:17:40;10.25;;;5.20;;
68140;SDS011;54941;52.220;104.306;2023-04-12T10:20:07;9.32;;;4.35;;
68140;SDS011;54941;52.220;104.306;2023-04-12T10:22:34;10.32;;;5.00;;
68140;SDS011;54941;52.220;104.306;2023-04-12T10:25:03;10.23;;;5.15;;
68140;SDS011;54941;52.220;104.306;2023-04-12T10:27:30;11.90;;;6.28;;
68140;SDS011;54941;52.220;104.306;2023-04-12T10:32:46;13.63;;;7.40;;
68140;SDS011;54941;52.220;104.306;2023-04-12T10:35:13;13.35;;;7.70;;
68140;SDS011;54941;52.220;104.306;2023-04-12T10:37:58;16.55;;;7.85;;
68140;SDS011;54941;52.220;104.306;2023-04-12T10:40:25;15.10;;;7.60;;
68140;SDS011;54941;52.220;104.306;2023-04-12T10:45:49;12.32;;;6.00;;
68140;SDS011;54941;52.220;104.306;2023-04-12T10:48:27;10.20;;;6.15;;
68140;SDS011;54941;52.220;104.306;2023-04-12T10:53:36;11.45;;;6.00;;
68140;SDS011;54941;52.220;104.306;2023-04-12T10:56:07;11.18;;;6.18;;
68140;SDS011;54941;52.220;104.306;2023-04-12T10:59:01;10.85;;;5.47;;
68140;SDS011;54941;52.220;104.306;2023-04-12T11:01:29;13.82;;;6.50;;
68140;SDS011;54941;52.220;104.306;2023-04-12T11:04:06;9.90;;;5.60;;
68140;SDS011;54941;52.220;104.306;2023-04-12T11:06:46;12.38;;;6.68;;
68140;SDS011;54941;52.220;104.306;2023-04-12T11:09:20;16.63;;;7.75;;
68140;SDS011;54941;52.220;104.306;2023-04-12T11:11:48;12.70;;;6.50;;
68140;SDS011;54941;52.220;104.306;2023-04-12T11:14:14;12.50;;;6.43;;
68140;SDS011;54941;52.220;104.306;2023-04-12T11:19:53;14.40;;;6.82;;
68140;SDS011;54941;52.220;104.306;2023-04-12T11:22:22;10.68;;;5.68;;
68140;SDS011;54941;52.220;104.306;2023-04-12T11:24:49;10.82;;;5.32;;
68140;SDS011;54941;52.220;104.306;2023-04-12T11:27:17;11.82;;;5.82;;
68140;SDS011;54941;52.220;104.306;2023-04-12T11:29:47;8.70;;;5.20;;
68140;SDS011;54941;52.220;104.306;2023-04-12T11:34:42;8.30;;;4.90;;
68140;SDS011;54941;52.220;104.306;2023-04-12T11:37:09;10.60;;;5.63;;
68140;SDS011;54941;52.220;104.306;2023-04-12T11:39:37;10.52;;;5.15;;
68140;SDS011;54941;52.220;104.306;2023-04-12T11:42:05;10.75;;;5.50;;
68140;SDS011;54941;52.220;104.306;2023-04-12T11:44:31;11.05;;;6.30;;
68140;SDS011;54941;52.220;104.306;2023-04-12T11:46:58;14.35;;;6.50;;
68140;SDS011;54941;52.220;104.306;2023-04-12T11:49:25;10.75;;;5.28;;
68140;SDS011;54941;52.220;104.306;2023-04-12T11:52:01;10.15;;;5.88;;
68140;SDS011;54941;52.220;104.306;2023-04-12T11:54:28;8.98;;;4.15;;
68140;SDS011;54941;52.220;104.306;2023-04-12T11:56:55;12.50;;;4.60;;
68140;SDS011;54941;52.220;104.306;2023-04-12T11:59:28;11.00;;;4.60;;
68140;SDS011;54941;52.220;104.306;2023-04-12T12:01:56;7.80;;;4.03;;
68140;SDS011;54941;52.220;104.306;2023-04-12T12:04:24;9.43;;;4.50;;
68140;SDS011;54941;52.220;104.306;2023-04-12T12:06:51;6.18;;;3.63;;
68140;SDS011;54941;52.220;104.306;2023-04-12T12:09:19;6.85;;;3.17;;
68140;SDS011;54941;52.220;104.306;2023-04-12T12:11:46;11.48;;;5.18;;
68140;SDS011;54941;52.220;104.306;2023-04-12T12:14:17;11.75;;;4.78;;
68140;SDS011;54941;52.220;104.306;2023-04-12T12:16:43;8.73;;;4.47;;
68140;SDS011;54941;52.220;104.306;2023-04-12T12:19:25;10.60;;;5.47;;
68140;SDS011;54941;52.220;104.306;2023-04-12T12:21:52;12.57;;;5.40;;
68140;SDS011;54941;52.220;104.306;2023-04-12T12:24:20;11.95;;;4.85;;
68140;SDS011;54941;52.220;104.306;2023-04-12T12:26:49;14.15;;;6.60;;
68140;SDS011;54941;52.220;104.306;2023-04-12T12:29:16;11.48;;;6.07;;
68140;SDS011;54941;52.220;104.306;2023-04-12T12:31:44;13.85;;;5.40;;
68140;SDS011;54941;52.220;104.306;2023-04-12T12:34:12;11.93;;;6.00;;
68140;SDS011;54941;52.220;104.306;2023-04-12T12:36:52;10.98;;;5.90;;
68140;SDS011;54941;52.220;104.306;2023-04-12T12:39:21;12.63;;;6.57;;
68140;SDS011;54941;52.220;104.306;2023-04-12T12:41:52;13.77;;;6.93;;
68140;SDS011;54941;52.220;104.306;2023-04-12T12:44:18;14.98;;;6.07;;
68140;SDS011;54941;52.220;104.306;2023-04-12T12:46:45;11.70;;;5.00;;
68140;SDS011;54941;52.220;104.306;2023-04-12T12:49:11;10.23;;;5.35;;
68140;SDS011;54941;52.220;104.306;2023-04-12T12:51:38;9.70;;;4.60;;
68140;SDS011;54941;52.220;104.306;2023-04-12T12:54:04;11.98;;;4.38;;
68140;SDS011;54941;52.220;104.306;2023-04-12T12:56:32;8.57;;;4.50;;
68140;SDS011;54941;52.220;104.306;2023-04-12T12:58:58;7.55;;;3.67;;
68140;SDS011;54941;52.220;104.306;2023-04-12T13:01:25;8.73;;;3.63;;
68140;SDS011;54941;52.220;104.306;2023-04-12T13:03:51;7.15;;;3.97;;
68140;SDS011;54941;52.220;104.306;2023-04-12T13:06:18;8.77;;;3.78;;
68140;SDS011;54941;52.220;104.306;2023-04-12T13:08:44;7.05;;;4.13;;
68140;SDS011;54941;52.220;104.306;2023-04-12T13:11:11;7.75;;;3.78;;
68140;SDS011;54941;52.220;104.306;2023-04-12T13:13:39;7.13;;;3.50;;
68140;SDS011;54941;52.220;104.306;2023-04-12T13:16:06;8.70;;;4.03;;
68140;SDS011;54941;52.220;104.306;2023-04-12T13:18:32;7.60;;;3.97;;
68140;SDS011;54941;52.220;104.306;2023-04-12T13:20:59;6.95;;;3.92;;
68140;SDS011;54941;52.220;104.306;2023-04-12T13:23:26;10.63;;;4.60;;
68140;SDS011;54941;52.220;104.306;2023-04-12T13:25:52;9.85;;;4.88;;
68140;SDS011;54941;52.220;104.306;2023-04-12T13:28:19;7.22;;;4.32;;
68140;SDS011;54941;52.220;104.306;2023-04-12T13:30:47;9.68;;;5.63;;
68140;SDS011;54941;52.220;104.306;2023-04-12T13:33:13;9.15;;;5.15;;
68140;SDS011;54941;52.220;104.306;2023-04-12T13:35:40;9.40;;;4.75;;
68140;SDS011;54941;52.220;104.306;2023-04-12T13:38:06;10.75;;;5.53;;
68140;SDS011;54941;52.220;104.306;2023-04-12T13:40:32;11.85;;;5.28;;
68140;SDS011;54941;52.220;104.306;2023-04-12T13:42:59;12.18;;;5.22;;
68140;SDS011;54941;52.220;104.306;2023-04-12T13:45:26;14.27;;;6.45;;
68140;SDS011;54941;52.220;104.306;2023-04-12T13:47:54;11.38;;;5.25;;
68140;SDS011;54941;52.220;104.306;2023-04-12T13:50:20;12.57;;;5.15;;
68140;SDS011;54941;52.220;104.306;2023-04-12T13:52:47;13.00;;;5.50;;
68140;SDS011;54941;52.220;104.306;2023-04-12T13:55:13;10.10;;;4.55;;
68140;SDS011;54941;52.220;104.306;2023-04-12T13:57:40;11.55;;;5.03;;
68140;SDS011;54941;52.220;104.306;2023-04-12T14:00:06;11.07;;;3.88;;
68140;SDS011;54941;52.220;104.306;2023-04-12T14:02:34;10.18;;;4.78;;
68140;SDS011;54941;52.220;104.306;2023-04-12T14:06:00;9.50;;;4.40;;
68140;SDS011;54941;52.220;104.306;2023-04-12T14:08:27;9.80;;;4.32;;
68140;SDS011;54941;52.220;104.306;2023-04-12T14:10:54;10.38;;;4.60;;
68140;SDS011;54941;52.220;104.306;2023-04-12T14:13:20;10.05;;;4.57;;
68140;SDS011;54941;52.220;104.306;2023-04-12T14:15:48;9.27;;;4.40;;
68140;SDS011;54941;52.220;104.306;2023-04-12T14:18:15;12.43;;;5.18;;
68140;SDS011;54941;52.220;104.306;2023-04-12T14:20:42;7.95;;;3.90;;
68140;SDS011;54941;52.220;104.306;2023-04-12T14:23:09;9.13;;;3.90;;
68140;SDS011;54941;52.220;104.306;2023-04-12T14:25:37;9.27;;;4.45;;
68140;SDS011;54941;52.220;104.306;2023-04-12T14:28:04;8.52;;;4.57;;
68140;SDS011;54941;52.220;104.306;2023-04-12T14:30:30;10.20;;;5.03;;
68140;SDS011;54941;52.220;104.306;2023-04-12T14:32:57;13.85;;;6.53;;
68140;SDS011;54941;52.220;104.306;2023-04-12T14:35:23;10.85;;;5.60;;
68140;SDS011;54941;52.220;104.306;2023-04-12T14:37:51;11.25;;;5.75;;
68140;SDS011;54941;52.220;104.306;2023-04-12T14:40:17;11.32;;;5.75;;